Armada, Michigan
Current Conditions -  °F | °C
As of 12:55 PM on Sunday 21 Dec 2014 (Local Time) from KMTC Reporting Station
Broken Clouds Broken Clouds  
Wind Chill: 25°   Ceiling: 20000
Heat Index: 34°   Visibility: 10mi
Dew Point: 25°   Wind: 13mph
Humidity: 71%   Direction: 150°SSE
Pressure: 30.24"   Gusts: NA
Location:  42.84°N, 82.88°W
Report Text: KMTC 211755Z 15011KT 10SM FEW035 BKN200 01/M04 A3024 RMK SLP257 T00111037 10014 21054 58014
Loading
Personal Weather Stations






























Interactive Weather Map New forecast layout! Learn more

10-Day Weather Forecast

Advertisements
Track Severe Weather on mobile